sensor_id;sensor_type;location;lat;lon;timestamp;P1;durP1;ratioP1;P2;durP2;ratioP2
37645;SDS011;23489;49.600;6.138;2023-06-22T00:01:27;9.88;;;8.73;;
37645;SDS011;23489;49.600;6.138;2023-06-22T00:03:53;11.05;;;9.25;;
37645;SDS011;23489;49.600;6.138;2023-06-22T00:06:18;10.32;;;9.23;;
37645;SDS011;23489;49.600;6.138;2023-06-22T00:08:44;10.30;;;8.87;;
37645;SDS011;23489;49.600;6.138;2023-06-22T00:11:10;9.93;;;8.93;;
37645;SDS011;23489;49.600;6.138;2023-06-22T00:13:37;10.48;;;9.30;;
37645;SDS011;23489;49.600;6.138;2023-06-22T00:16:03;10.40;;;8.82;;
37645;SDS011;23489;49.600;6.138;2023-06-22T00:18:29;10.70;;;9.60;;
37645;SDS011;23489;49.600;6.138;2023-06-22T00:20:55;10.07;;;9.10;;
37645;SDS011;23489;49.600;6.138;2023-06-22T00:23:23;10.63;;;9.52;;
37645;SDS011;23489;49.600;6.138;2023-06-22T00:25:49;11.93;;;9.63;;
37645;SDS011;23489;49.600;6.138;2023-06-22T00:28:15;10.90;;;9.48;;
37645;SDS011;23489;49.600;6.138;2023-06-22T00:30:40;10.53;;;9.43;;
37645;SDS011;23489;49.600;6.138;2023-06-22T00:33:06;11.60;;;10.20;;
37645;SDS011;23489;49.600;6.138;2023-06-22T00:35:32;12.88;;;10.43;;
37645;SDS011;23489;49.600;6.138;2023-06-22T00:37:59;12.50;;;10.35;;
37645;SDS011;23489;49.600;6.138;2023-06-22T00:40:26;11.27;;;10.00;;
37645;SDS011;23489;49.600;6.138;2023-06-22T00:42:53;11.20;;;10.00;;
37645;SDS011;23489;49.600;6.138;2023-06-22T00:45:19;11.97;;;10.20;;
37645;SDS011;23489;49.600;6.138;2023-06-22T00:47:45;10.73;;;9.63;;
37645;SDS011;23489;49.600;6.138;2023-06-22T00:50:12;11.03;;;9.23;;
37645;SDS011;23489;49.600;6.138;2023-06-22T00:52:43;11.00;;;9.30;;
37645;SDS011;23489;49.600;6.138;2023-06-22T00:55:09;11.73;;;10.43;;
37645;SDS011;23489;49.600;6.138;2023-06-22T00:57:35;12.98;;;10.95;;
37645;SDS011;23489;49.600;6.138;2023-06-22T01:00:02;12.60;;;11.38;;
37645;SDS011;23489;49.600;6.138;2023-06-22T01:02:32;14.10;;;12.40;;
37645;SDS011;23489;49.600;6.138;2023-06-22T01:04:58;13.80;;;12.43;;
37645;SDS011;23489;49.600;6.138;2023-06-22T01:07:31;16.00;;;12.77;;
37645;SDS011;23489;49.600;6.138;2023-06-22T01:10:14;14.43;;;12.23;;
37645;SDS011;23489;49.600;6.138;2023-06-22T01:12:53;15.10;;;13.25;;
37645;SDS011;23489;49.600;6.138;2023-06-22T01:15:40;16.15;;;13.05;;
37645;SDS011;23489;49.600;6.138;2023-06-22T01:18:08;14.73;;;13.13;;
37645;SDS011;23489;49.600;6.138;2023-06-22T01:20:35;14.73;;;12.93;;
37645;SDS011;23489;49.600;6.138;2023-06-22T01:23:16;13.65;;;12.25;;
37645;SDS011;23489;49.600;6.138;2023-06-22T01:31:08;14.48;;;13.00;;
37645;SDS011;23489;49.600;6.138;2023-06-22T01:33:37;14.40;;;12.90;;
37645;SDS011;23489;49.600;6.138;2023-06-22T01:36:06;14.48;;;13.05;;
37645;SDS011;23489;49.600;6.138;2023-06-22T01:38:33;13.15;;;11.85;;
37645;SDS011;23489;49.600;6.138;2023-06-22T01:41:00;13.82;;;12.48;;
37645;SDS011;23489;49.600;6.138;2023-06-22T01:43:27;15.87;;;12.50;;
37645;SDS011;23489;49.600;6.138;2023-06-22T01:45:54;14.30;;;12.75;;
37645;SDS011;23489;49.600;6.138;2023-06-22T01:48:21;14.70;;;12.83;;
37645;SDS011;23489;49.600;6.138;2023-06-22T01:50:47;13.90;;;11.85;;
37645;SDS011;23489;49.600;6.138;2023-06-22T01:53:13;13.80;;;12.25;;
37645;SDS011;23489;49.600;6.138;2023-06-22T01:55:39;14.00;;;12.57;;
37645;SDS011;23489;49.600;6.138;2023-06-22T01:58:05;14.87;;;13.27;;
37645;SDS011;23489;49.600;6.138;2023-06-22T02:00:35;15.18;;;13.63;;
37645;SDS011;23489;49.600;6.138;2023-06-22T02:03:10;15.32;;;13.82;;
37645;SDS011;23489;49.600;6.138;2023-06-22T02:05:47;15.73;;;14.10;;
37645;SDS011;23489;49.600;6.138;2023-06-22T02:08:25;14.48;;;13.00;;
37645;SDS011;23489;49.600;6.138;2023-06-22T02:10:58;15.27;;;13.73;;
37645;SDS011;23489;49.600;6.138;2023-06-22T02:13:25;15.63;;;14.13;;
37645;SDS011;23489;49.600;6.138;2023-06-22T02:15:52;14.98;;;13.48;;
37645;SDS011;23489;49.600;6.138;2023-06-22T02:18:19;15.27;;;13.77;;
37645;SDS011;23489;49.600;6.138;2023-06-22T02:20:45;14.70;;;13.20;;
37645;SDS011;23489;49.600;6.138;2023-06-22T02:23:11;15.93;;;13.77;;
37645;SDS011;23489;49.600;6.138;2023-06-22T02:25:37;15.93;;;14.23;;
37645;SDS011;23489;49.600;6.138;2023-06-22T02:28:02;14.82;;;13.38;;
37645;SDS011;23489;49.600;6.138;2023-06-22T02:30:28;14.27;;;12.77;;
37645;SDS011;23489;49.600;6.138;2023-06-22T02:32:54;15.17;;;12.73;;
37645;SDS011;23489;49.600;6.138;2023-06-22T02:35:25;14.65;;;12.43;;
37645;SDS011;23489;49.600;6.138;2023-06-22T02:37:51;14.00;;;12.50;;
37645;SDS011;23489;49.600;6.138;2023-06-22T02:40:17;13.50;;;12.20;;
37645;SDS011;23489;49.600;6.138;2023-06-22T02:42:42;14.37;;;12.87;;
37645;SDS011;23489;49.600;6.138;2023-06-22T02:45:08;15.47;;;13.67;;
37645;SDS011;23489;49.600;6.138;2023-06-22T02:47:34;14.10;;;12.68;;
37645;SDS011;23489;49.600;6.138;2023-06-22T02:50:01;14.35;;;12.85;;
37645;SDS011;23489;49.600;6.138;2023-06-22T02:52:29;14.93;;;13.43;;
37645;SDS011;23489;49.600;6.138;2023-06-22T02:54:55;15.13;;;13.48;;
37645;SDS011;23489;49.600;6.138;2023-06-22T02:57:21;15.07;;;13.30;;
37645;SDS011;23489;49.600;6.138;2023-06-22T02:59:46;14.75;;;13.25;;
37645;SDS011;23489;49.600;6.138;2023-06-22T03:02:12;14.57;;;13.07;;
37645;SDS011;23489;49.600;6.138;2023-06-22T03:04:39;16.67;;;14.40;;
37645;SDS011;23489;49.600;6.138;2023-06-22T03:07:04;14.45;;;13.00;;
37645;SDS011;23489;49.600;6.138;2023-06-22T03:09:31;14.80;;;13.32;;
37645;SDS011;23489;49.600;6.138;2023-06-22T03:11:57;16.45;;;13.77;;
37645;SDS011;23489;49.600;6.138;2023-06-22T03:14:27;14.60;;;13.10;;
37645;SDS011;23489;49.600;6.138;2023-06-22T03:16:53;15.00;;;13.50;;
37645;SDS011;23489;49.600;6.138;2023-06-22T03:19:19;14.25;;;12.93;;
37645;SDS011;23489;49.600;6.138;2023-06-22T03:21:47;14.38;;;12.93;;
37645;SDS011;23489;49.600;6.138;2023-06-22T03:24:12;14.90;;;13.23;;
37645;SDS011;23489;49.600;6.138;2023-06-22T03:26:38;15.68;;;13.98;;
37645;SDS011;23489;49.600;6.138;2023-06-22T03:29:03;14.48;;;12.98;;
37645;SDS011;23489;49.600;6.138;2023-06-22T03:31:30;14.82;;;13.32;;
37645;SDS011;23489;49.600;6.138;2023-06-22T03:33:56;13.83;;;12.47;;
37645;SDS011;23489;49.600;6.138;2023-06-22T03:36:22;14.10;;;12.70;;
37645;SDS011;23489;49.600;6.138;2023-06-22T03:38:49;14.50;;;13.00;;
37645;SDS011;23489;49.600;6.138;2023-06-22T03:41:15;15.18;;;13.55;;
37645;SDS011;23489;49.600;6.138;2023-06-22T03:43:41;16.65;;;15.05;;
37645;SDS011;23489;49.600;6.138;2023-06-22T03:46:07;16.73;;;14.73;;
37645;SDS011;23489;49.600;6.138;2023-06-22T03:48:33;15.25;;;13.75;;
37645;SDS011;23489;49.600;6.138;2023-06-22T03:50:59;14.30;;;12.67;;
37645;SDS011;23489;49.600;6.138;2023-06-22T03:53:25;14.57;;;13.13;;
37645;SDS011;23489;49.600;6.138;2023-06-22T03:55:51;14.73;;;13.23;;
37645;SDS011;23489;49.600;6.138;2023-06-22T03:58:18;14.18;;;12.68;;
37645;SDS011;23489;49.600;6.138;2023-06-22T04:00:48;14.98;;;12.68;;
37645;SDS011;23489;49.600;6.138;2023-06-22T04:03:16;14.35;;;13.05;;
37645;SDS011;23489;49.600;6.138;2023-06-22T04:05:43;14.25;;;12.75;;
37645;SDS011;23489;49.600;6.138;2023-06-22T04:08:09;13.90;;;12.50;;
37645;SDS011;23489;49.600;6.138;2023-06-22T04:10:35;14.73;;;12.70;;
37645;SDS011;23489;49.600;6.138;2023-06-22T04:13:01;14.38;;;12.98;;
37645;SDS011;23489;49.600;6.138;2023-06-22T04:15:27;13.90;;;12.60;;
37645;SDS011;23489;49.600;6.138;2023-06-22T04:17:54;14.55;;;12.70;;
37645;SDS011;23489;49.600;6.138;2023-06-22T04:20:20;14.23;;;12.77;;
37645;SDS011;23489;49.600;6.138;2023-06-22T04:22:46;13.10;;;11.80;;
37645;SDS011;23489;49.600;6.138;2023-06-22T04:25:12;13.93;;;12.33;;
37645;SDS011;23489;49.600;6.138;2023-06-22T04:27:37;14.50;;;12.80;;
37645;SDS011;23489;49.600;6.138;2023-06-22T04:30:07;13.13;;;11.40;;
37645;SDS011;23489;49.600;6.138;2023-06-22T04:32:34;14.05;;;12.10;;
37645;SDS011;23489;49.600;6.138;2023-06-22T04:35:01;12.77;;;11.48;;
37645;SDS011;23489;49.600;6.138;2023-06-22T04:37:29;12.25;;;11.02;;
37645;SDS011;23489;49.600;6.138;2023-06-22T04:39:55;13.13;;;11.48;;
37645;SDS011;23489;49.600;6.138;2023-06-22T04:42:21;13.27;;;10.93;;
37645;SDS011;23489;49.600;6.138;2023-06-22T04:44:46;13.00;;;11.70;;
37645;SDS011;23489;49.600;6.138;2023-06-22T04:47:12;12.63;;;11.43;;
37645;SDS011;23489;49.600;6.138;2023-06-22T04:49:37;12.10;;;10.90;;
37645;SDS011;23489;49.600;6.138;2023-06-22T04:52:08;12.88;;;11.18;;
37645;SDS011;23489;49.600;6.138;2023-06-22T04:54:35;11.20;;;10.10;;
37645;SDS011;23489;49.600;6.138;2023-06-22T04:57:03;11.93;;;10.65;;
37645;SDS011;23489;49.600;6.138;2023-06-22T04:59:34;11.07;;;9.97;;
37645;SDS011;23489;49.600;6.138;2023-06-22T05:02:01;11.00;;;9.90;;
37645;SDS011;23489;49.600;6.138;2023-06-22T05:04:28;11.65;;;10.45;;
37645;SDS011;23489;49.600;6.138;2023-06-22T05:06:58;13.38;;;10.00;;
37645;SDS011;23489;49.600;6.138;2023-06-22T05:09:25;10.40;;;9.40;;
37645;SDS011;23489;49.600;6.138;2023-06-22T05:11:51;10.63;;;9.52;;
37645;SDS011;23489;49.600;6.138;2023-06-22T05:14:17;11.25;;;10.07;;
37645;SDS011;23489;49.600;6.138;2023-06-22T05:16:44;10.80;;;9.70;;
37645;SDS011;23489;49.600;6.138;2023-06-22T05:19:10;10.20;;;9.20;;
37645;SDS011;23489;49.600;6.138;2023-06-22T05:21:36;11.43;;;9.95;;
37645;SDS011;23489;49.600;6.138;2023-06-22T05:24:02;10.75;;;9.65;;
37645;SDS011;23489;49.600;6.138;2023-06-22T05:26:31;11.95;;;9.32;;
37645;SDS011;23489;49.600;6.138;2023-06-22T05:28:58;10.70;;;9.35;;
37645;SDS011;23489;49.600;6.138;2023-06-22T05:31:25;10.87;;;9.87;;
37645;SDS011;23489;49.600;6.138;2023-06-22T05:33:52;10.63;;;9.52;;
37645;SDS011;23489;49.600;6.138;2023-06-22T05:36:19;10.38;;;9.38;;
37645;SDS011;23489;49.600;6.138;2023-06-22T05:38:46;11.20;;;9.83;;
37645;SDS011;23489;49.600;6.138;2023-06-22T05:41:12;10.23;;;9.15;;
37645;SDS011;23489;49.600;6.138;2023-06-22T05:43:39;10.65;;;9.45;;
37645;SDS011;23489;49.600;6.138;2023-06-22T05:46:06;9.52;;;8.52;;
37645;SDS011;23489;49.600;6.138;2023-06-22T05:48:31;10.40;;;9.05;;
37645;SDS011;23489;49.600;6.138;2023-06-22T05:50:58;11.90;;;9.23;;
37645;SDS011;23489;49.600;6.138;2023-06-22T05:53:24;10.30;;;9.30;;
37645;SDS011;23489;49.600;6.138;2023-06-22T05:55:50;9.48;;;8.50;;
37645;SDS011;23489;49.600;6.138;2023-06-22T05:58:15;9.52;;;8.52;;
37645;SDS011;23489;49.600;6.138;2023-06-22T06:00:41;8.98;;;8.07;;
37645;SDS011;23489;49.600;6.138;2023-06-22T06:03:08;9.82;;;8.70;;
37645;SDS011;23489;49.600;6.138;2023-06-22T06:05:35;9.65;;;8.65;;
37645;SDS011;23489;49.600;6.138;2023-06-22T06:08:02;9.23;;;8.23;;
37645;SDS011;23489;49.600;6.138;2023-06-22T06:10:29;10.40;;;8.50;;
37645;SDS011;23489;49.600;6.138;2023-06-22T06:12:55;9.35;;;8.35;;
37645;SDS011;23489;49.600;6.138;2023-06-22T06:15:21;9.77;;;8.43;;
37645;SDS011;23489;49.600;6.138;2023-06-22T06:17:51;8.88;;;7.93;;
37645;SDS011;23489;49.600;6.138;2023-06-22T06:20:21;10.35;;;8.25;;
37645;SDS011;23489;49.600;6.138;2023-06-22T06:22:48;11.30;;;8.18;;
37645;SDS011;23489;49.600;6.138;2023-06-22T06:25:14;11.43;;;8.57;;
37645;SDS011;23489;49.600;6.138;2023-06-22T06:27:43;10.40;;;8.25;;
37645;SDS011;23489;49.600;6.138;2023-06-22T06:30:10;10.15;;;8.48;;
37645;SDS011;23489;49.600;6.138;2023-06-22T06:32:37;11.05;;;8.15;;
37645;SDS011;23489;49.600;6.138;2023-06-22T06:35:04;9.88;;;8.15;;
37645;SDS011;23489;49.600;6.138;2023-06-22T06:37:38;10.35;;;8.05;;
37645;SDS011;23489;49.600;6.138;2023-06-22T06:40:05;10.07;;;7.93;;
37645;SDS011;23489;49.600;6.138;2023-06-22T06:42:35;10.13;;;8.00;;
37645;SDS011;23489;49.600;6.138;2023-06-22T06:45:03;10.27;;;7.68;;
37645;SDS011;23489;49.600;6.138;2023-06-22T06:47:30;8.52;;;6.88;;
37645;SDS011;23489;49.600;6.138;2023-06-22T06:49:55;10.00;;;7.45;;
37645;SDS011;23489;49.600;6.138;2023-06-22T07:02:04;10.88;;;6.53;;
37645;SDS011;23489;49.600;6.138;2023-06-22T07:04:30;8.45;;;7.28;;
37645;SDS011;23489;49.600;6.138;2023-06-22T07:06:56;7.13;;;6.35;;
37645;SDS011;23489;49.600;6.138;2023-06-22T07:09:21;7.53;;;6.65;;
37645;SDS011;23489;49.600;6.138;2023-06-22T07:11:47;7.88;;;7.07;;
37645;SDS011;23489;49.600;6.138;2023-06-22T07:14:12;9.18;;;7.43;;
37645;SDS011;23489;49.600;6.138;2023-06-22T07:16:38;7.38;;;6.55;;
37645;SDS011;23489;49.600;6.138;2023-06-22T07:33:38;7.72;;;6.93;;
37645;SDS011;23489;49.600;6.138;2023-06-22T09:42:42;13.90;;;11.85;;
37645;SDS011;23489;49.600;6.138;2023-06-22T09:45:08;15.68;;;11.68;;
37645;SDS011;23489;49.600;6.138;2023-06-22T09:47:34;13.30;;;10.35;;
37645;SDS011;23489;49.600;6.138;2023-06-22T09:49:59;11.13;;;9.95;;
37645;SDS011;23489;49.600;6.138;2023-06-22T09:52:25;12.75;;;9.98;;
37645;SDS011;23489;49.600;6.138;2023-06-22T09:54:51;12.20;;;10.00;;
37645;SDS011;23489;49.600;6.138;2023-06-22T09:57:17;11.57;;;10.30;;
37645;SDS011;23489;49.600;6.138;2023-06-22T10:14:17;8.43;;;7.63;;
37645;SDS011;23489;49.600;6.138;2023-06-22T10:16:43;7.90;;;7.20;;
37645;SDS011;23489;49.600;6.138;2023-06-22T10:19:09;9.80;;;8.00;;
37645;SDS011;23489;49.600;6.138;2023-06-22T10:21:34;9.15;;;7.72;;
37645;SDS011;23489;49.600;6.138;2023-06-22T10:24:00;9.25;;;8.15;;
37645;SDS011;23489;49.600;6.138;2023-06-22T11:00:30;10.85;;;7.82;;
